createdAt,value
2019-04-21T00:00:31.897Z,3.20
2019-04-21T00:03:09.937Z,3.20
2019-04-21T00:05:55.739Z,3.07
2019-04-21T00:08:33.706Z,2.70
2019-04-21T00:11:02.760Z,3.03
2019-04-21T00:13:23.631Z,3.50
2019-04-21T00:15:48.871Z,3.23
2019-04-21T00:18:19.110Z,3.37
2019-04-21T00:20:53.480Z,3.10
2019-04-21T00:23:39.596Z,2.87
2019-04-21T00:26:06.878Z,3.10
2019-04-21T00:28:53.680Z,2.90
2019-04-21T00:31:18.182Z,3.10
2019-04-21T00:33:34.294Z,3.07
2019-04-21T00:36:10.236Z,3.20
2019-04-21T00:39:09.985Z,3.20
2019-04-21T00:41:27.290Z,3.57
2019-04-21T00:43:50.896Z,3.07
2019-04-21T00:46:29.564Z,3.40
2019-04-21T00:48:57.376Z,3.37
2019-04-21T00:51:49.767Z,2.70
2019-04-21T00:54:21.286Z,3.00
2019-04-21T00:56:48.304Z,3.40
2019-04-21T00:59:19.535Z,3.00
2019-04-21T01:01:52.429Z,3.10
2019-04-21T01:04:23.632Z,3.17
2019-04-21T01:06:56.159Z,3.20
2019-04-21T01:09:19.763Z,3.13
2019-04-21T01:11:57.583Z,2.90
2019-04-21T01:14:35.924Z,3.17
2019-04-21T01:17:01.835Z,2.80
2019-04-21T01:19:25.212Z,3.40
2019-04-21T01:21:42.265Z,3.20
2019-04-21T01:24:19.685Z,3.30
2019-04-21T01:26:58.403Z,3.17
2019-04-21T01:29:42.769Z,3.10
2019-04-21T01:32:13.543Z,2.90
2019-04-21T01:34:39.594Z,2.97
2019-04-21T01:37:10.937Z,3.10
2019-04-21T01:39:51.485Z,3.60
2019-04-21T01:42:15.903Z,3.23
2019-04-21T01:44:56.289Z,3.20
2019-04-21T01:47:17.463Z,3.10
2019-04-21T01:49:43.265Z,3.17
2019-04-21T01:55:00.412Z,3.53
2019-04-21T01:57:33.284Z,3.33
2019-04-21T01:59:57.077Z,3.37
2019-04-21T02:02:47.698Z,3.80
2019-04-21T02:05:18.815Z,3.60
2019-04-21T02:07:47.454Z,3.10
2019-04-21T02:10:17.683Z,3.27
2019-04-21T02:12:51.078Z,3.60
2019-04-21T02:15:26.599Z,2.93
2019-04-21T02:17:54.026Z,3.17
2019-04-21T02:20:16.583Z,3.60
2019-04-21T02:23:12.935Z,3.23
2019-04-21T02:25:34.981Z,3.50
2019-04-21T02:28:03.552Z,3.20
2019-04-21T02:30:50.122Z,3.27
2019-04-21T02:33:18.592Z,3.53
2019-04-21T02:35:58.058Z,3.83
2019-04-21T02:38:16.529Z,3.57
2019-04-21T02:40:51.381Z,3.50
2019-04-21T02:45:56.311Z,3.27
2019-04-21T02:48:30.828Z,3.50
2019-04-21T02:50:53.378Z,3.33
2019-04-21T02:54:03.781Z,3.43
2019-04-21T02:56:04.055Z,3.37
2019-04-21T02:58:43.565Z,3.30
2019-04-21T03:01:25.991Z,3.60
2019-04-21T03:03:43.955Z,3.70
2019-04-21T03:06:24.972Z,4.07
2019-04-21T03:11:44.734Z,3.60
2019-04-21T03:14:05.916Z,3.77
2019-04-21T03:16:25.945Z,3.57
2019-04-21T03:24:15.289Z,3.70
2019-04-21T03:29:11.869Z,3.80
2019-04-21T03:39:21.627Z,4.10
2019-04-21T03:42:00.210Z,4.30
2019-04-21T03:44:24.686Z,3.60
2019-04-21T03:46:57.298Z,3.87
2019-04-21T03:52:03.818Z,3.93
2019-04-21T03:54:39.123Z,4.47
2019-04-21T03:59:36.857Z,3.97
2019-04-21T04:02:15.886Z,4.03
2019-04-21T04:04:54.960Z,4.27
2019-04-21T04:07:47.672Z,3.77
2019-04-21T04:10:08.360Z,4.03
2019-04-21T04:12:35.013Z,4.10
2019-04-21T04:15:18.313Z,4.30
2019-04-21T04:17:40.390Z,4.40
2019-04-21T04:20:16.078Z,4.60
2019-04-21T04:22:52.165Z,4.67
2019-04-21T04:27:59.441Z,5.20
2019-04-21T04:30:21.851Z,4.97
2019-04-21T04:32:53.789Z,4.43
2019-04-21T04:37:55.940Z,5.13
2019-04-21T04:40:31.414Z,4.73
2019-04-21T04:50:50.092Z,4.53
2019-04-21T04:53:26.704Z,4.37
2019-04-21T04:55:45.773Z,4.40
2019-04-21T04:58:23.405Z,4.67
2019-04-21T05:01:06.153Z,4.60
2019-04-21T05:03:38.983Z,4.87
2019-04-21T05:16:43.238Z,4.23
2019-04-21T05:19:10.612Z,4.27
2019-04-21T05:21:36.311Z,4.57
2019-04-21T05:23:55.836Z,4.50
2019-04-21T05:26:21.466Z,4.33
2019-04-21T05:28:55.591Z,4.17
2019-04-21T05:31:51.122Z,4.30
2019-04-21T05:34:30.496Z,3.80
2019-04-21T05:37:07.178Z,4.30
2019-04-21T05:39:51.040Z,4.47
2019-04-21T05:42:17.060Z,4.20
2019-04-21T05:45:08.752Z,4.47
2019-04-21T05:47:43.806Z,4.33
2019-04-21T05:50:12.144Z,4.00
2019-04-21T05:52:44.935Z,4.13
2019-04-21T05:55:34.608Z,4.17
2019-04-21T05:57:58.305Z,4.40
2019-04-21T06:03:10.138Z,4.13
2019-04-21T06:05:42.509Z,3.70
2019-04-21T06:08:13.240Z,4.37
2019-04-21T06:10:49.276Z,4.30
2019-04-21T06:13:22.039Z,4.23
2019-04-21T06:15:51.338Z,5.43
2019-04-21T06:18:21.808Z,4.47
2019-04-21T06:20:54.612Z,3.97
2019-04-21T06:23:28.710Z,4.23
2019-04-21T06:28:38.910Z,5.07
2019-04-21T06:33:35.730Z,4.20
2019-04-21T06:39:01.865Z,3.97
2019-04-21T06:41:28.138Z,3.57
2019-04-21T06:46:30.954Z,3.57
2019-04-21T06:48:59.933Z,4.20
2019-04-21T06:54:03.527Z,3.63
2019-04-21T06:59:06.420Z,3.70
2019-04-21T07:01:42.258Z,3.40
2019-04-21T07:04:18.850Z,3.73
2019-04-21T07:11:42.282Z,3.90
2019-04-21T07:19:33.278Z,3.80
2019-04-21T07:21:51.040Z,3.33
2019-04-21T07:27:02.340Z,3.30
2019-04-21T07:29:34.848Z,3.33
2019-04-21T07:32:04.590Z,3.17
2019-04-21T07:34:45.473Z,3.60
2019-04-21T07:37:06.500Z,3.23
2019-04-21T07:39:35.713Z,3.20
2019-04-21T07:42:06.504Z,3.17
2019-04-21T07:44:35.088Z,3.47
2019-04-21T07:47:15.495Z,3.37
2019-04-21T07:49:56.787Z,3.10
2019-04-21T07:52:39.585Z,3.27
2019-04-21T07:57:39.127Z,3.33
2019-04-21T08:02:49.751Z,3.50
2019-04-21T08:07:55.836Z,4.00
2019-04-21T08:10:22.457Z,3.27
2019-04-21T08:12:55.200Z,4.30
2019-04-21T08:15:44.814Z,3.80
2019-04-21T08:18:01.134Z,3.63
2019-04-21T08:20:28.917Z,3.50
2019-04-21T08:23:04.975Z,3.30
2019-04-21T08:25:47.658Z,3.13
2019-04-21T08:28:09.062Z,3.80
2019-04-21T08:30:45.830Z,3.13
2019-04-21T08:33:25.005Z,3.70
2019-04-21T08:38:20.034Z,4.07
2019-04-21T08:40:59.030Z,3.90
2019-04-21T08:43:37.028Z,4.10
2019-04-21T08:46:01.515Z,3.33
2019-04-21T08:48:33.368Z,4.63
2019-04-21T08:51:14.192Z,4.20
2019-04-21T08:53:35.706Z,4.23
2019-04-21T08:56:12.306Z,4.40
2019-04-21T08:58:52.265Z,3.93
2019-04-21T09:01:24.216Z,4.13
2019-04-21T09:04:11.673Z,4.10
2019-04-21T09:06:55.637Z,4.77
2019-04-21T09:09:14.727Z,3.87
2019-04-21T09:11:42.211Z,4.10
2019-04-21T09:16:41.070Z,4.07
2019-04-21T09:19:20.240Z,3.87
2019-04-21T09:24:31.287Z,3.93
2019-04-21T09:26:55.275Z,3.90
2019-04-21T09:29:19.614Z,4.40
2019-04-21T09:31:43.512Z,3.77
2019-04-21T09:34:20.777Z,4.17
2019-04-21T09:36:51.122Z,4.70
2019-04-21T09:39:20.714Z,3.73
2019-04-21T09:41:53.724Z,3.80
2019-04-21T09:44:27.545Z,4.30
2019-04-21T09:46:56.349Z,4.20
2019-04-21T09:49:29.704Z,3.30
2019-04-21T09:51:57.865Z,4.20
2019-04-21T09:54:32.001Z,4.43
2019-04-21T09:57:07.118Z,4.47
2019-04-21T09:59:37.042Z,3.60
2019-04-21T10:02:11.879Z,3.50
2019-04-21T10:04:37.984Z,3.30
2019-04-21T10:07:09.001Z,3.57
2019-04-21T10:09:39.737Z,4.10
2019-04-21T10:12:10.094Z,4.07
2019-04-21T10:14:40.954Z,4.10
2019-04-21T10:17:19.744Z,4.23
2019-04-21T10:19:50.670Z,4.33
2019-04-21T10:22:21.223Z,4.40
2019-04-21T10:24:52.167Z,4.87
2019-04-21T10:27:23.215Z,5.13
2019-04-21T10:29:53.976Z,4.50
2019-04-21T10:32:25.441Z,4.50
2019-04-21T10:34:56.924Z,5.00
2019-04-21T10:37:39.126Z,4.70
2019-04-21T10:40:00.117Z,4.33
2019-04-21T10:42:31.235Z,4.23
2019-04-21T10:45:03.211Z,4.67
2019-04-21T10:47:34.601Z,4.77
2019-04-21T10:50:08.821Z,4.73
2019-04-21T10:52:57.121Z,4.43
2019-04-21T10:55:44.683Z,4.33
2019-04-21T10:58:06.537Z,4.80
2019-04-21T11:00:38.272Z,4.43
2019-04-21T11:03:26.827Z,5.10
2019-04-21T11:06:04.495Z,4.43
2019-04-21T11:08:40.926Z,5.17
2019-04-21T11:11:08.034Z,4.90
2019-04-21T11:13:38.895Z,5.40
2019-04-21T11:16:09.423Z,5.40
2019-04-21T11:18:40.024Z,4.50
2019-04-21T11:21:11.169Z,4.60
2019-04-21T11:23:41.866Z,5.20
2019-04-21T11:26:12.156Z,5.53
2019-04-21T11:28:43.009Z,5.37
2019-04-21T11:31:15.240Z,5.57
2019-04-21T11:33:47.163Z,4.93
2019-04-21T11:36:17.845Z,4.30
2019-04-21T11:39:06.146Z,4.20
2019-04-21T11:41:23.717Z,4.97
2019-04-21T11:43:55.025Z,4.30
2019-04-21T11:46:26.669Z,3.97
2019-04-21T11:48:58.031Z,3.60
2019-04-21T11:51:28.965Z,4.47
2019-04-21T11:53:59.602Z,4.80
2019-04-21T11:56:30.504Z,4.60
2019-04-21T11:59:01.680Z,3.57
2019-04-21T12:01:32.309Z,3.53
2019-04-21T12:04:03.377Z,4.07
2019-04-21T12:06:40.950Z,3.97
2019-04-21T12:09:08.113Z,3.70
2019-04-21T12:11:39.481Z,3.50
2019-04-21T12:14:12.041Z,4.37
2019-04-21T12:16:43.307Z,3.37
2019-04-21T12:19:14.572Z,3.63
2019-04-21T12:21:53.494Z,3.53
2019-04-21T12:24:17.425Z,2.93
2019-04-21T12:26:48.001Z,3.00
2019-04-21T12:29:18.919Z,3.10
2019-04-21T12:31:51.684Z,2.63
2019-04-21T12:34:23.510Z,2.90
2019-04-21T12:36:55.000Z,2.43
2019-04-21T12:39:26.987Z,2.43
2019-04-21T12:41:58.455Z,2.57
2019-04-21T12:44:29.536Z,2.60
2019-04-21T12:47:00.016Z,2.00
2019-04-21T12:49:31.795Z,2.40
2019-04-21T12:52:02.291Z,2.10
2019-04-21T12:54:33.368Z,2.13
2019-04-21T12:57:05.324Z,2.23
2019-04-21T12:59:37.655Z,2.10
2019-04-21T13:02:09.501Z,2.13
2019-04-21T13:04:40.171Z,2.07
2019-04-21T13:07:10.600Z,1.60
2019-04-21T13:09:42.084Z,1.50
2019-04-21T13:12:13.115Z,1.40
2019-04-21T13:14:44.038Z,1.60
2019-04-21T13:17:15.233Z,1.40
2019-04-21T13:19:45.823Z,1.90
2019-04-21T13:22:16.407Z,1.60
2019-04-21T13:24:47.599Z,1.70
2019-04-21T13:27:18.169Z,1.73
2019-04-21T13:29:48.662Z,1.60
2019-04-21T13:32:20.369Z,1.50
2019-04-21T13:34:51.007Z,1.73
2019-04-21T13:37:21.563Z,1.70
2019-04-21T13:40:29.133Z,1.50
2019-04-21T13:42:49.619Z,1.50
2019-04-21T13:45:16.335Z,1.53
2019-04-21T13:47:48.397Z,2.27
2019-04-21T13:50:19.311Z,2.20
2019-04-21T13:52:51.023Z,2.13
2019-04-21T13:55:23.422Z,2.20
2019-04-21T13:57:54.545Z,2.00
2019-04-21T14:00:25.438Z,2.00
2019-04-21T14:02:56.441Z,1.83
2019-04-21T14:05:28.537Z,1.90
2019-04-21T14:07:58.988Z,1.90
2019-04-21T14:10:29.359Z,2.37
2019-04-21T14:13:00.453Z,2.20
2019-04-21T14:15:32.433Z,1.97
2019-04-21T14:18:03.005Z,1.80
2019-04-21T14:20:33.389Z,2.30
2019-04-21T14:23:15.587Z,2.00
2019-04-21T14:25:35.829Z,1.90
2019-04-21T14:28:06.348Z,1.93
2019-04-21T14:30:36.813Z,2.17
2019-04-21T14:33:07.893Z,2.27
2019-04-21T14:35:38.914Z,2.30
2019-04-21T14:38:10.764Z,2.43
2019-04-21T14:40:42.018Z,2.20
2019-04-21T14:43:14.158Z,2.17
2019-04-21T14:46:01.349Z,2.60
2019-04-21T14:48:50.881Z,2.10
2019-04-21T14:51:41.008Z,2.20
2019-04-21T14:54:22.514Z,2.07
2019-04-21T14:56:53.437Z,2.20
2019-04-21T14:59:24.789Z,1.73
2019-04-21T15:01:55.850Z,2.13
2019-04-21T15:04:26.142Z,2.03
2019-04-21T15:06:57.109Z,2.60
2019-04-21T15:09:29.254Z,2.57
2019-04-21T15:12:00.560Z,2.50
2019-04-21T15:14:31.907Z,2.70
2019-04-21T15:17:02.983Z,3.03
2019-04-21T15:19:33.365Z,2.50
2019-04-21T15:22:04.187Z,2.80
2019-04-21T15:24:36.194Z,2.70
2019-04-21T15:27:07.148Z,2.93
2019-04-21T15:29:38.514Z,2.70
2019-04-21T15:32:08.913Z,2.87
2019-04-21T15:34:40.240Z,2.20
2019-04-21T15:37:10.969Z,2.67
2019-04-21T15:39:42.494Z,2.50
2019-04-21T15:42:14.456Z,2.40
2019-04-21T15:44:45.165Z,8.63
2019-04-21T15:47:15.955Z,2.63
2019-04-21T15:50:03.017Z,6.40
2019-04-21T15:52:29.878Z,2.50
2019-04-21T15:55:05.305Z,2.83
2019-04-21T15:57:44.571Z,4.17
2019-04-21T16:00:26.767Z,2.70
2019-04-21T16:02:58.365Z,3.08
2019-04-21T16:05:29.034Z,2.63
2019-04-21T16:08:00.307Z,2.87
2019-04-21T16:10:40.818Z,2.80
2019-04-21T16:13:03.466Z,2.67
2019-04-21T16:15:36.561Z,2.47
2019-04-21T16:18:07.560Z,2.93
2019-04-21T16:20:39.748Z,2.50
2019-04-21T16:23:10.760Z,2.57
2019-04-21T16:25:41.290Z,2.37
2019-04-21T16:28:13.274Z,2.57
2019-04-21T16:30:44.663Z,2.30
2019-04-21T16:33:16.043Z,2.30
2019-04-21T16:35:47.589Z,2.30
2019-04-21T16:38:19.618Z,2.47
2019-04-21T16:40:56.219Z,2.33
2019-04-21T16:43:22.886Z,2.67
2019-04-21T16:45:55.004Z,2.67
2019-04-21T16:48:25.422Z,2.53
2019-04-21T16:50:55.877Z,3.27
2019-04-21T16:53:30.384Z,3.10
2019-04-21T16:56:02.713Z,3.43
2019-04-21T16:58:44.883Z,2.47
2019-04-21T17:01:30.168Z,2.20
2019-04-21T17:04:02.365Z,2.30
2019-04-21T17:06:33.232Z,3.23
2019-04-21T17:09:05.792Z,2.80
2019-04-21T17:11:39.231Z,3.30
2019-04-21T17:14:27.205Z,2.77
2019-04-21T17:17:02.880Z,2.73
2019-04-21T17:19:20.010Z,2.93
2019-04-21T17:21:45.598Z,3.40
2019-04-21T17:24:16.721Z,2.93
2019-04-21T17:26:48.209Z,3.03
2019-04-21T17:29:20.564Z,2.87
2019-04-21T17:31:51.277Z,2.60
2019-04-21T17:34:26.114Z,2.70
2019-04-21T17:36:55.055Z,4.13
2019-04-21T17:39:27.008Z,3.60
2019-04-21T17:42:11.613Z,3.47
2019-04-21T17:44:30.222Z,3.07
2019-04-21T17:47:04.869Z,3.17
2019-04-21T17:49:32.977Z,3.57
2019-04-21T17:52:23.402Z,2.80
2019-04-21T17:55:18.435Z,5.30
2019-04-21T17:57:57.092Z,4.35
2019-04-21T18:00:57.793Z,4.00
2019-04-21T18:03:18.488Z,2.93
2019-04-21T18:05:39.191Z,4.10
2019-04-21T18:08:13.982Z,3.50
2019-04-21T18:10:42.329Z,3.73
2019-04-21T18:13:07.747Z,3.13
2019-04-21T18:15:50.138Z,2.63
2019-04-21T18:18:05.174Z,2.90
2019-04-21T18:20:40.196Z,9.53
2019-04-21T18:23:31.428Z,3.17
2019-04-21T18:25:57.858Z,4.40
2019-04-21T18:28:20.875Z,3.23
2019-04-21T18:30:56.522Z,3.20
2019-04-21T18:33:32.067Z,2.87
2019-04-21T18:36:02.899Z,3.67
2019-04-21T18:39:12.578Z,2.90
2019-04-21T18:41:28.711Z,3.63
2019-04-21T18:44:28.702Z,3.27
2019-04-21T18:47:03.601Z,3.33
2019-04-21T18:49:15.443Z,3.80
2019-04-21T18:52:06.951Z,3.17
2019-04-21T18:54:53.691Z,3.33
2019-04-21T18:57:18.643Z,3.20
2019-04-21T18:59:40.282Z,3.70
2019-04-21T19:02:11.264Z,3.30
2019-04-21T19:04:42.814Z,3.80
2019-04-21T19:07:25.469Z,3.67
2019-04-21T19:10:14.854Z,3.50
2019-04-21T19:13:03.635Z,3.53
2019-04-21T19:15:04.770Z,4.00
2019-04-21T19:20:15.384Z,3.57
2019-04-21T19:22:43.125Z,3.80
2019-04-21T19:25:16.898Z,3.83
2019-04-21T19:27:50.275Z,4.53
2019-04-21T19:30:33.978Z,4.50
2019-04-21T19:32:51.312Z,3.10
2019-04-21T19:35:10.743Z,3.83
2019-04-21T19:37:49.789Z,3.27
2019-04-21T19:40:30.858Z,3.37
2019-04-21T19:42:55.771Z,3.30
2019-04-21T19:45:32.111Z,3.10
2019-04-21T19:48:09.441Z,3.10
2019-04-21T19:50:41.218Z,3.17
2019-04-21T19:53:03.492Z,3.63
2019-04-21T19:55:25.653Z,3.13
2019-04-21T19:57:56.750Z,3.20
2019-04-21T20:00:28.464Z,3.57
2019-04-21T20:03:00.711Z,3.40
2019-04-21T20:05:39.606Z,3.30
2019-04-21T20:08:17.633Z,3.40
2019-04-21T20:10:55.534Z,3.03
2019-04-21T20:13:42.108Z,3.30
2019-04-21T20:16:01.406Z,3.30
2019-04-21T20:18:24.481Z,3.47
2019-04-21T20:20:44.141Z,3.43
2019-04-21T20:23:19.304Z,4.00
2019-04-21T20:25:49.848Z,3.53
2019-04-21T20:28:35.786Z,3.00
2019-04-21T20:31:09.690Z,3.50
2019-04-21T20:36:14.973Z,3.20
2019-04-21T20:38:35.279Z,3.87
2019-04-21T20:41:10.923Z,3.30
2019-04-21T20:43:47.414Z,4.07
2019-04-21T20:46:15.586Z,3.20
2019-04-21T20:48:52.400Z,3.57
2019-04-21T20:51:21.883Z,3.60
2019-04-21T20:53:56.578Z,3.57
2019-04-21T20:56:19.318Z,3.07
2019-04-21T20:59:01.583Z,3.80
2019-04-21T21:01:41.274Z,3.70
2019-04-21T21:04:01.765Z,3.73
2019-04-21T21:06:33.690Z,3.70
2019-04-21T21:09:07.296Z,3.60
2019-04-21T21:11:43.390Z,3.47
2019-04-21T21:14:16.419Z,3.80
2019-04-21T21:16:53.527Z,3.37
2019-04-21T21:19:21.011Z,3.40
2019-04-21T21:21:44.172Z,3.70
2019-04-21T21:24:21.852Z,3.80
2019-04-21T21:26:53.141Z,3.73
2019-04-21T21:29:30.522Z,3.23
2019-04-21T21:32:06.835Z,3.53
2019-04-21T21:34:32.931Z,3.37
2019-04-21T21:37:14.139Z,3.67
2019-04-21T21:39:43.914Z,3.00
2019-04-21T21:41:55.102Z,3.47
2019-04-21T21:44:24.535Z,3.37
2019-04-21T21:47:05.645Z,2.97
2019-04-21T21:49:39.404Z,3.93
2019-04-21T21:52:06.924Z,3.40
2019-04-21T21:54:29.734Z,3.37
2019-04-21T21:57:00.763Z,3.40
2019-04-21T21:59:33.635Z,3.57
2019-04-21T22:02:05.109Z,3.20
2019-04-21T22:04:37.482Z,2.80
2019-04-21T22:07:12.431Z,3.70
2019-04-21T22:09:40.076Z,3.20
2019-04-21T22:12:12.330Z,3.43
2019-04-21T22:14:46.878Z,3.40
2019-04-21T22:17:33.702Z,3.10
2019-04-21T22:20:08.194Z,2.90
2019-04-21T22:22:32.469Z,3.07
2019-04-21T22:24:59.407Z,3.43
2019-04-21T22:27:23.341Z,3.40
2019-04-21T22:29:59.415Z,3.07
2019-04-21T22:32:28.979Z,3.17
2019-04-21T22:35:01.975Z,2.90
2019-04-21T22:37:41.383Z,2.87
2019-04-21T22:40:12.391Z,3.10
2019-04-21T22:42:40.170Z,3.40
2019-04-21T22:45:07.280Z,2.67
2019-04-21T22:47:39.835Z,2.90
2019-04-21T22:50:12.645Z,2.80
2019-04-21T22:52:43.601Z,2.90
2019-04-21T22:55:20.234Z,2.80
2019-04-21T22:57:51.082Z,3.40
2019-04-21T23:00:20.837Z,3.30
2019-04-21T23:02:53.936Z,3.47
2019-04-21T23:05:29.330Z,3.10
2019-04-21T23:08:01.453Z,2.97
2019-04-21T23:10:29.500Z,2.83
2019-04-21T23:13:16.868Z,3.10
2019-04-21T23:15:50.644Z,2.77
2019-04-21T23:18:33.127Z,3.13
2019-04-21T23:21:06.194Z,3.00
2019-04-21T23:23:42.869Z,3.13
2019-04-21T23:26:09.765Z,2.90
2019-04-21T23:28:45.730Z,2.73
2019-04-21T23:31:21.846Z,3.23
2019-04-21T23:33:30.658Z,3.00
2019-04-21T23:36:10.596Z,2.90
2019-04-21T23:38:39.319Z,2.73
2019-04-21T23:41:07.495Z,2.87
2019-04-21T23:43:38.151Z,3.30
2019-04-21T23:46:11.993Z,3.20
2019-04-21T23:49:04.229Z,3.00
2019-04-21T23:51:27.593Z,3.00
2019-04-21T23:53:47.230Z,2.90
2019-04-21T23:56:21.705Z,2.77
2019-04-21T23:58:54.702Z,3.40
